Home > Products > Valid Products > TAF

000
FTUS44 KFWD 291505 AAA
TAFDFW
TAF AMD
KDFW 291505Z 2915/3018 15010KT P6SM BKN150
     FM300600 14010KT P6SM VCTS BKN060CB
     FM301100 14006KT P6SM VCSH OVC025
     FM301500 14007KT P6SM BKN100=



000
FTUS44 KFWD 291505 AAA
TAFFTW
TAF AMD
KFTW 291505Z 2915/3012 14008KT P6SM BKN150
     FM300600 14010KT P6SM VCTS BKN060CB
     FM301100 14006KT P6SM VCSH OVC025=



000
FTUS44 KFWD 291505 AAA
TAFACT
TAF AMD
KACT 291505Z 2915/3012 09009KT P6SM BKN150
     FM300500 16006KT P6SM SCT020 OVC100
     FM301010 14006KT P6SM VCSH OVC015=



000
FTUS44 KFWD 291140
TAFFTW
TAF
KFTW 291140Z 2912/3012 25014KT P6SM -RA VCTS SCT020CB OVC120
      TEMPO 2912/2913 5SM -TSRA BKN020CB
     FM291300 VRB10KT P6SM -RA VCTS SCT020CB OVC120
     FM291500 15010KT P6SM SCT030 BKN040 BKN150
     FM300600 14010KT P6SM VCTS BKN060CB
     FM301100 14006KT P6SM VCSH OVC025=



000
FTUS44 KFWD 291140
TAFACT
TAF
KACT 291140Z 2912/3012 34010KT P6SM BKN012 BKN130
     FM291600 14006KT P6SM SCT020 BKN040
     FM300500 16006KT P6SM SCT020 OVC100
     FM301010 14006KT P6SM VCSH OVC015=



000
FTUS44 KFWD 291140
TAFDFW
TAF
KDFW 291140Z 2912/3018 25014KT P6SM -RA VCTS SCT030CB OVC120
      TEMPO 2912/2913 5SM -TSRA BKN020CB
     FM291300 VRB10KT P6SM -RA VCTS SCT030CB OVC120
     FM291500 15010KT P6SM SCT030 BKN040 BKN150
     FM300600 14010KT P6SM VCTS BKN060CB
     FM301100 14006KT P6SM VCSH OVC025=



000
FTUS44 KFWD 290520
TAFFTW
TAF
KFTW 290520Z 2906/3006 13010KT P6SM VCTS BKN150CB BKN250
     FM290900 15008KT P6SM OVC018
     FM291500 15010KT P6SM SCT015 BKN040=



000
FTUS44 KFWD 290520
TAFACT
TAF
KACT 290520Z 2906/3006 14010KT 5SM BR VCSH BKN025
     FM290700 16007KT P6SM OVC012
     FM291600 16007KT P6SM BKN040=



000
FTUS44 KFWD 290520
TAFDFW
TAF
KDFW 290520Z 2906/3012 13010KT P6SM VCTS BKN150CB BKN250
     FM290900 15008KT P6SM OVC018
     FM291500 15010KT P6SM SCT015 BKN040
     FM300600 18010KT P6SM VCTS BKN060CB=



000
FTUS44 KFWD 282105 AAA
TAFFTW
TAF AMD
KFTW 282105Z 2821/2918 16009KT P6SM FEW025
     FM290500 15008KT P6SM OVC018
     FM291500 15010KT P6SM SCT015 BKN040=



000
FTUS44 KFWD 282105 AAB
TAFACT
TAF AMD
KACT 282105Z 2821/2918 18010KT P6SM SCT018 BKN035
     FM290300 14007KT P6SM OVC012
     FM290600 16007KT P6SM VCSH OVC008
     FM291200 15007KT P6SM OVC011
     FM291600 16007KT P6SM SCT011 BKN040=



000
FTUS44 KFWD 282105 AAA
TAFDFW
TAF AMD
KDFW 282105Z 2821/2924 17011KT P6SM SCT025
     FM290500 15008KT P6SM OVC018
     FM291500 15010KT P6SM SCT015 BKN040=



000
FTUS44 KFWD 281840 AAA
TAFACT
TAF AMD
KACT 281840Z 2819/2918 20010KT P6SM SCT018 BKN035
     FM290300 14007KT P6SM OVC012
     FM290600 16007KT P6SM VCSH OVC008
     FM291200 15007KT P6SM OVC011
     FM291600 16007KT P6SM SCT011 BKN040=



000
FTUS44 KFWD 281221 AAA
TAFACT
TAF AMD
KACT 281221Z 2812/2912 17008KT P6SM OVC006
      TEMPO 2812/2815 4SM BR OVC004
     FM281600 18010KT P6SM SCT006 BKN010
     FM281800 18010KT P6SM SCT015 BKN035
     FM282100 16010KT P6SM BKN050
     FM290300 14007KT P6SM VCTS OVC012CB
      TEMPO 2903/2907 4SM -TSRA OVC009CB=



000
FTUS44 KFWD 280539
TAFFTW
TAF
KFTW 280539Z 2806/2906 13008KT P6SM SCT007
     FM280630 15009KT P6SM OVC007
     FM281100 17008KT 5SM BR OVC006
     FM281600 18007KT 6SM BR BKN010
     FM281700 19011KT P6SM SCT015 SCT040=



000
FTUS44 KFWD 280539
TAFACT
TAF
KACT 280539Z 2806/2906 17006KT 4SM BR OVC004
      TEMPO 2806/2810 1SM BR
     FM281500 18010KT P6SM SCT006 OVC010
     FM281800 18010KT P6SM SCT015 BKN035
     FM282100 16010KT P6SM BKN050=



000
FTUS44 KFWD 280539
TAFDFW
TAF
KDFW 280539Z 2806/2912 14009KT P6SM OVC007
     FM281100 17008KT 5SM BR OVC006
     FM281600 18007KT 6SM BR BKN010
     FM281700 19011KT P6SM SCT015 SCT040=



000
FTUS44 KFWD 272332
TAFDFW
TAF
KDFW 272332Z 2800/2906 15015KT P6SM BKN250
     FM280900 16008KT 6SM BR BKN012
     FM281600 19011KT P6SM SCT040=



000
FTUS44 KFWD 272332
TAFACT
TAF
KACT 272332Z 2800/2824 12012KT P6SM BKN250
     FM280800 17010KT 4SM BR BKN009
     FM281600 18010KT P6SM BKN020
     FM282100 16010KT P6SM BKN050=



000
FTUS44 KFWD 272332
TAFFTW
TAF
KFTW 272332Z 2800/2824 17015KT P6SM SCT250
     FM280900 16008KT 6SM BR BKN012
     FM281600 19011KT P6SM SCT040=



000
FTUS44 KFWD 271043 AAB
TAFACT
TAF AMD
KACT 271043Z 2711/2806 10005KT 5SM -SHRA SCT015 BKN020
      TEMPO 2711/2714 4SM TSRA BKN015CB
     FM272100 17013KT P6SM VCTS OVC030CB
     FM280100 17017KT P6SM SCT040=



    US Dept of Commerce
    National Oceanic and Atmospheric Administration
    National Weather Service
    1325 East West Highway
    Silver Spring, MD 20910
    Page Author: NWS Internet Services Team
Disclaimer
Information Quality
Credits
Glossary
Privacy Policy
Freedom of Information Act (FOIA)
About Us
Career Opportunities